createdAt,value
2018-09-19T00:01:42.356Z,7.53
2018-09-19T00:04:10.485Z,7.33
2018-09-19T00:06:38.610Z,7.20
2018-09-19T00:09:08.934Z,7.63
2018-09-19T00:11:37.083Z,7.67
2018-09-19T00:14:05.213Z,7.40
2018-09-19T00:16:33.557Z,7.47
2018-09-19T00:19:01.676Z,7.23
2018-09-19T00:21:29.895Z,7.70
2018-09-19T00:23:58.131Z,7.33
2018-09-19T00:26:26.327Z,7.57
2018-09-19T00:28:54.556Z,7.73
2018-09-19T00:31:22.747Z,8.50
2018-09-19T00:33:50.907Z,7.83
2018-09-19T00:36:19.054Z,8.10
2018-09-19T00:38:47.189Z,8.70
2018-09-19T00:41:15.321Z,7.60
2018-09-19T00:43:43.433Z,8.30
2018-09-19T00:46:11.582Z,8.13
2018-09-19T00:48:39.733Z,7.80
2018-09-19T00:51:08.113Z,7.23
2018-09-19T00:53:36.237Z,7.73
2018-09-19T00:56:04.412Z,7.90
2018-09-19T00:58:32.537Z,7.57
2018-09-19T01:01:00.662Z,7.60
2018-09-19T01:03:28.593Z,8.13
2018-09-19T01:05:56.734Z,7.57
2018-09-19T01:08:24.884Z,7.57
2018-09-19T01:10:53.030Z,7.80
2018-09-19T01:13:21.170Z,7.57
2018-09-19T01:15:49.602Z,7.63
2018-09-19T01:18:17.820Z,7.80
2018-09-19T01:20:45.926Z,8.53
2018-09-19T01:23:14.122Z,8.20
2018-09-19T01:25:42.258Z,8.10
2018-09-19T01:28:10.437Z,7.23
2018-09-19T01:30:38.576Z,7.80
2018-09-19T01:33:06.738Z,7.10
2018-09-19T01:35:34.657Z,7.50
2018-09-19T01:38:02.810Z,8.63
2018-09-19T01:40:30.952Z,7.93
2018-09-19T01:42:59.109Z,8.30
2018-09-19T01:45:27.262Z,8.40
2018-09-19T01:47:55.435Z,8.10
2018-09-19T01:50:23.604Z,8.00
2018-09-19T01:52:51.762Z,8.03
2018-09-19T01:55:19.918Z,7.73
2018-09-19T01:57:48.154Z,7.80
2018-09-19T02:00:16.287Z,8.30
2018-09-19T02:02:44.445Z,8.50
2018-09-19T02:05:12.635Z,8.70
2018-09-19T02:07:40.793Z,8.77
2018-09-19T02:10:08.913Z,8.40
2018-09-19T02:12:37.058Z,8.43
2018-09-19T02:15:05.187Z,8.40
2018-09-19T02:17:33.348Z,7.70
2018-09-19T02:20:01.474Z,8.10
2018-09-19T02:22:29.601Z,8.87
2018-09-19T02:24:57.730Z,8.97
2018-09-19T02:27:25.883Z,9.93
2018-09-19T02:29:54.021Z,9.50
2018-09-19T02:32:22.174Z,8.70
2018-09-19T02:34:50.293Z,9.13
2018-09-19T02:37:18.457Z,9.20
2018-09-19T02:39:46.577Z,9.57
2018-09-19T02:42:14.727Z,8.97
2018-09-19T02:44:42.879Z,8.97
2018-09-19T02:47:11.056Z,9.33
2018-09-19T02:49:39.130Z,9.10
2018-09-19T02:52:07.272Z,9.20
2018-09-19T02:54:35.423Z,8.70
2018-09-19T02:57:03.543Z,9.07
2018-09-19T02:59:31.696Z,9.10
2018-09-19T03:01:59.839Z,8.73
2018-09-19T03:04:27.994Z,8.97
2018-09-19T03:06:56.138Z,8.33
2018-09-19T03:09:24.274Z,8.93
2018-09-19T03:11:52.403Z,9.30
2018-09-19T03:14:20.548Z,9.30
2018-09-19T03:16:48.677Z,8.97
2018-09-19T03:19:16.880Z,9.13
2018-09-19T03:21:45.021Z,9.17
2018-09-19T03:24:13.158Z,9.73
2018-09-19T03:26:41.321Z,8.80
2018-09-19T03:29:09.469Z,9.57
2018-09-19T03:31:37.609Z,9.40
2018-09-19T03:34:05.860Z,9.17
2018-09-19T03:36:34.012Z,8.73
2018-09-19T03:39:02.165Z,8.13
2018-09-19T03:41:30.306Z,8.77
2018-09-19T03:43:58.453Z,9.60
2018-09-19T03:46:26.579Z,9.33
2018-09-19T03:48:54.713Z,9.60
2018-09-19T03:51:22.859Z,8.57
2018-09-19T03:53:51.003Z,9.27
2018-09-19T03:56:18.908Z,9.27
2018-09-19T03:58:47.066Z,9.50
2018-09-19T04:01:15.314Z,9.23
2018-09-19T04:03:43.473Z,9.03
2018-09-19T04:06:11.593Z,9.60
2018-09-19T04:08:39.791Z,8.77
2018-09-19T04:11:07.938Z,8.83
2018-09-19T04:13:36.183Z,9.27
2018-09-19T04:16:04.410Z,9.57
2018-09-19T04:18:32.352Z,9.00
2018-09-19T04:21:00.245Z,9.03
2018-09-19T04:23:28.466Z,9.13
2018-09-19T04:25:56.693Z,8.60
2018-09-19T04:28:24.830Z,8.67
2018-09-19T04:30:52.979Z,8.93
2018-09-19T04:33:21.115Z,8.63
2018-09-19T04:35:49.254Z,9.10
2018-09-19T04:38:17.425Z,8.63
2018-09-19T04:40:45.606Z,8.67
2018-09-19T04:43:13.734Z,8.03
2018-09-19T04:45:41.717Z,9.47
2018-09-19T04:48:09.924Z,8.33
2018-09-19T04:50:38.107Z,8.33
2018-09-19T04:53:06.438Z,8.70
2018-09-19T04:55:34.363Z,8.50
2018-09-19T04:58:02.583Z,9.13
2018-09-19T05:00:30.503Z,8.33
2018-09-19T05:02:58.672Z,8.50
2018-09-19T05:05:26.581Z,8.90
2018-09-19T05:07:54.752Z,8.97
2018-09-19T05:10:22.912Z,8.37
2018-09-19T05:12:51.033Z,8.70
2018-09-19T05:15:18.953Z,8.10
2018-09-19T05:17:47.101Z,8.50
2018-09-19T05:20:15.273Z,8.37
2018-09-19T05:22:43.411Z,8.53
2018-09-19T05:25:11.590Z,9.23
2018-09-19T05:27:39.729Z,8.40
2018-09-19T05:30:07.895Z,8.37
2018-09-19T05:32:36.036Z,8.83
2018-09-19T05:35:03.969Z,8.50
2018-09-19T05:37:32.111Z,7.97
2018-09-19T05:40:00.302Z,8.17
2018-09-19T05:42:28.464Z,8.70
2018-09-19T05:44:56.643Z,9.10
2018-09-19T05:47:24.770Z,8.33
2018-09-19T05:49:53.236Z,7.83
2018-09-19T05:52:25.962Z,8.27
2018-09-19T05:54:55.483Z,8.30
2018-09-19T05:57:23.637Z,9.17
2018-09-19T05:59:51.795Z,8.87
2018-09-19T06:02:19.949Z,7.83
2018-09-19T06:04:48.306Z,8.27
2018-09-19T06:07:16.477Z,9.40
2018-09-19T06:09:44.638Z,9.40
2018-09-19T06:12:12.587Z,8.20
2018-09-19T06:14:40.763Z,8.77
2018-09-19T06:17:08.919Z,9.07
2018-09-19T06:19:37.090Z,8.83
2018-09-19T06:22:05.262Z,8.00
2018-09-19T06:24:33.446Z,7.77
2018-09-19T06:27:01.638Z,9.23
2018-09-19T06:29:29.761Z,8.53
2018-09-19T06:31:57.943Z,8.00
2018-09-19T06:34:26.197Z,7.27
2018-09-19T06:36:54.356Z,6.97
2018-09-19T06:39:22.690Z,7.50
2018-09-19T06:41:50.843Z,6.90
2018-09-19T06:44:19.016Z,6.63
2018-09-19T06:46:47.192Z,6.20
2018-09-19T06:49:15.369Z,6.73
2018-09-19T06:51:43.505Z,6.43
2018-09-19T06:54:11.688Z,6.00
2018-09-19T06:56:39.838Z,5.70
2018-09-19T06:59:08.025Z,5.90
2018-09-19T07:01:36.211Z,5.93
2018-09-19T07:04:04.361Z,6.30
2018-09-19T07:06:32.594Z,6.27
2018-09-19T07:09:00.789Z,7.40
2018-09-19T07:11:28.942Z,6.63
2018-09-19T07:13:57.125Z,6.40
2018-09-19T07:16:25.293Z,6.60
2018-09-19T07:18:53.548Z,7.10
2018-09-19T07:21:21.635Z,7.00
2018-09-19T07:23:49.806Z,6.90
2018-09-19T07:26:17.922Z,6.70
2018-09-19T07:28:46.461Z,6.67
2018-09-19T07:31:14.672Z,6.90
2018-09-19T07:33:42.758Z,6.83
2018-09-19T07:36:10.949Z,6.50
2018-09-19T07:38:39.143Z,6.50
2018-09-19T07:41:07.302Z,5.57
2018-09-19T07:43:35.474Z,5.83
2018-09-19T07:46:03.694Z,6.07
2018-09-19T07:48:31.841Z,6.30
2018-09-19T07:51:00.169Z,5.63
2018-09-19T07:53:34.497Z,5.97
2018-09-19T07:56:03.121Z,5.83
2018-09-19T07:58:31.869Z,6.13
2018-09-19T08:01:00.274Z,6.10
2018-09-19T08:03:28.466Z,6.30
2018-09-19T08:05:56.630Z,5.43
2018-09-19T08:08:24.801Z,5.97
2018-09-19T08:10:53.466Z,6.03
2018-09-19T08:13:21.610Z,5.40
2018-09-19T08:15:49.822Z,5.20
2018-09-19T08:18:17.973Z,5.87
2018-09-19T08:20:46.126Z,5.63
2018-09-19T08:23:14.282Z,5.43
2018-09-19T08:25:42.445Z,5.57
2018-09-19T08:28:10.593Z,5.00
2018-09-19T08:30:38.793Z,5.63
2018-09-19T08:33:06.955Z,5.73
2018-09-19T08:35:35.157Z,5.00
2018-09-19T08:38:03.310Z,4.97
2018-09-19T08:40:31.521Z,5.33
2018-09-19T08:42:59.681Z,5.10
2018-09-19T08:45:27.931Z,5.07
2018-09-19T08:47:56.059Z,5.20
2018-09-19T08:50:24.256Z,4.70
2018-09-19T08:52:52.403Z,4.80
2018-09-19T08:55:20.540Z,5.03
2018-09-19T08:57:48.687Z,5.90
2018-09-19T09:00:16.871Z,5.47
2018-09-19T09:02:45.033Z,5.00
2018-09-19T09:05:13.225Z,5.37
2018-09-19T09:07:41.338Z,4.97
2018-09-19T09:10:09.501Z,5.03
2018-09-19T09:16:01.231Z,4.53
2018-09-19T09:18:29.401Z,4.57
2018-09-19T09:20:57.640Z,4.50
2018-09-19T09:23:25.783Z,4.07
2018-09-19T09:25:53.941Z,4.80
2018-09-19T09:28:21.920Z,4.67
2018-09-19T09:30:50.095Z,3.90
2018-09-19T09:33:18.269Z,4.00
2018-09-19T09:35:46.214Z,3.90
2018-09-19T09:38:14.159Z,3.90
2018-09-19T09:40:42.091Z,3.97
2018-09-19T09:43:10.016Z,4.10
2018-09-19T09:45:38.183Z,3.93
2018-09-19T09:48:06.105Z,4.30
2018-09-19T09:50:34.027Z,4.30
2018-09-19T09:53:02.170Z,4.10
2018-09-19T09:55:30.094Z,4.30
2018-09-19T09:57:58.348Z,4.30
2018-09-19T10:00:31.942Z,4.23
2018-09-19T10:03:00.138Z,4.10
2018-09-19T10:05:28.306Z,4.43
2018-09-19T10:07:56.274Z,4.40
2018-09-19T10:10:24.515Z,4.30
2018-09-19T10:12:52.454Z,4.20
2018-09-19T10:15:20.366Z,4.00
2018-09-19T10:17:48.771Z,3.70
2018-09-19T10:20:16.921Z,3.73
2018-09-19T10:22:45.103Z,4.03
2018-09-19T10:25:13.489Z,3.90
2018-09-19T10:27:41.406Z,3.63
2018-09-19T10:30:09.579Z,3.90
2018-09-19T10:32:37.782Z,3.77
2018-09-19T10:35:05.959Z,3.90
2018-09-19T10:37:33.871Z,3.87
2018-09-19T10:40:02.026Z,3.93
2018-09-19T10:42:29.994Z,3.67
2018-09-19T10:44:57.938Z,3.40
2018-09-19T10:47:26.108Z,3.80
2018-09-19T10:49:54.327Z,4.10
2018-09-19T10:52:22.492Z,4.10
2018-09-19T10:54:50.654Z,3.10
2018-09-19T10:57:18.851Z,3.90
2018-09-19T10:59:47.030Z,3.80
2018-09-19T11:02:15.214Z,3.50
2018-09-19T11:04:43.438Z,3.73
2018-09-19T11:07:11.609Z,3.50
2018-09-19T11:09:39.782Z,3.47
2018-09-19T11:12:08.010Z,3.37
2018-09-19T11:14:35.940Z,4.27
2018-09-19T11:17:04.127Z,3.30
2018-09-19T11:19:32.034Z,3.77
2018-09-19T11:22:00.194Z,3.63
2018-09-19T11:24:28.399Z,3.57
2018-09-19T11:26:56.609Z,3.70
2018-09-19T11:29:24.802Z,3.57
2018-09-19T11:31:52.735Z,3.60
2018-09-19T11:34:20.915Z,3.50
2018-09-19T11:36:48.930Z,3.30
2018-09-19T11:39:17.079Z,3.37
2018-09-19T11:41:45.263Z,3.57
2018-09-19T11:44:13.440Z,3.47
2018-09-19T11:46:41.600Z,3.90
2018-09-19T11:49:09.791Z,3.43
2018-09-19T11:51:37.962Z,4.13
2018-09-19T11:54:06.074Z,3.63
2018-09-19T11:56:34.246Z,4.00
2018-09-19T11:59:02.410Z,3.97
2018-09-19T12:01:30.333Z,3.80
2018-09-19T12:03:58.241Z,4.00
2018-09-19T12:06:26.406Z,4.20
2018-09-19T12:08:54.568Z,4.27
2018-09-19T12:11:22.742Z,3.93
2018-09-19T12:13:50.930Z,4.37
2018-09-19T12:16:19.066Z,4.13
2018-09-19T12:18:47.239Z,4.17
2018-09-19T12:21:15.399Z,4.07
2018-09-19T12:23:43.655Z,4.03
2018-09-19T12:26:11.800Z,4.30
2018-09-19T12:28:39.943Z,3.87
2018-09-19T12:31:08.184Z,4.40
2018-09-19T12:33:36.343Z,4.03
2018-09-19T12:36:05.895Z,4.27
2018-09-19T12:38:34.136Z,4.50
2018-09-19T12:41:02.296Z,4.30
2018-09-19T12:43:30.459Z,3.83
2018-09-19T12:45:58.614Z,4.43
2018-09-19T12:48:26.767Z,4.00
2018-09-19T12:50:54.933Z,4.00
2018-09-19T12:53:24.807Z,3.70
2018-09-19T12:55:53.737Z,3.60
2018-09-19T12:58:21.931Z,4.03
2018-09-19T13:00:50.229Z,4.40
2018-09-19T13:03:18.403Z,4.20
2018-09-19T13:05:46.600Z,3.93
2018-09-19T13:08:14.771Z,3.90
2018-09-19T13:10:42.713Z,4.00
2018-09-19T13:13:10.906Z,3.73
2018-09-19T13:15:39.071Z,3.60
2018-09-19T13:18:06.990Z,3.63
2018-09-19T13:20:34.950Z,4.07
2018-09-19T13:23:03.097Z,4.67
2018-09-19T13:25:31.259Z,4.00
2018-09-19T13:27:59.166Z,4.03
2018-09-19T13:30:27.342Z,4.10
2018-09-19T13:32:55.502Z,4.33
2018-09-19T13:35:23.735Z,4.50
2018-09-19T13:37:52.002Z,4.30
2018-09-19T13:40:20.190Z,4.80
2018-09-19T13:42:48.358Z,4.17
2018-09-19T13:45:16.543Z,4.20
2018-09-19T13:47:44.764Z,4.30
2018-09-19T13:50:25.209Z,3.80
2018-09-19T13:52:53.367Z,4.10
2018-09-19T13:55:21.574Z,4.30
2018-09-19T13:57:49.751Z,4.27
2018-09-19T14:00:17.891Z,4.50
2018-09-19T14:02:46.058Z,4.20
2018-09-19T14:05:14.248Z,3.90
2018-09-19T14:07:42.406Z,4.10
2018-09-19T14:10:10.577Z,4.20
2018-09-19T14:12:38.751Z,4.07
2018-09-19T14:15:06.931Z,4.37
2018-09-19T14:17:35.197Z,4.50
2018-09-19T14:20:03.371Z,4.37
2018-09-19T14:22:31.520Z,4.40
2018-09-19T14:24:59.682Z,4.20
2018-09-19T14:27:27.843Z,4.43
2018-09-19T14:29:56.034Z,4.40
2018-09-19T14:32:24.210Z,4.60
2018-09-19T14:34:52.366Z,4.80
2018-09-19T14:37:20.538Z,4.60
2018-09-19T14:39:48.964Z,4.23
2018-09-19T14:42:17.130Z,4.90
2018-09-19T14:44:45.281Z,4.73
2018-09-19T14:47:13.429Z,4.60
2018-09-19T14:49:41.586Z,4.50
2018-09-19T14:52:09.764Z,5.27
2018-09-19T14:54:37.963Z,4.77
2018-09-19T14:57:05.862Z,4.40
2018-09-19T14:59:33.815Z,4.67
2018-09-19T15:02:01.740Z,4.70
2018-09-19T15:04:30.041Z,4.80
2018-09-19T15:06:58.201Z,4.70
2018-09-19T15:09:26.135Z,4.80
2018-09-19T15:11:54.119Z,4.43
2018-09-19T15:14:22.279Z,4.40
2018-09-19T15:16:50.464Z,4.53
2018-09-19T15:19:18.685Z,5.40
2018-09-19T15:21:46.610Z,4.53
2018-09-19T15:24:14.595Z,4.50
2018-09-19T15:26:42.485Z,4.83
2018-09-19T15:29:10.397Z,4.67
2018-09-19T15:31:38.330Z,4.60
2018-09-19T15:36:41.064Z,5.00
2018-09-19T15:39:09.609Z,4.60
2018-09-19T15:41:37.559Z,4.80
2018-09-19T15:44:05.696Z,5.23
2018-09-19T15:46:33.851Z,5.00
2018-09-19T15:49:01.755Z,4.97
2018-09-19T15:51:29.894Z,4.57
2018-09-19T15:53:58.058Z,4.60
2018-09-19T15:56:26.213Z,4.30
2018-09-19T15:58:54.448Z,4.73
2018-09-19T16:01:22.582Z,4.90
2018-09-19T16:03:50.426Z,4.70
2018-09-19T16:06:18.371Z,4.97
2018-09-19T16:08:46.347Z,4.87
2018-09-19T16:11:14.570Z,4.77
2018-09-19T16:13:42.783Z,5.17
2018-09-19T16:16:10.708Z,4.93
2018-09-19T16:18:38.633Z,5.07
2018-09-19T16:21:06.832Z,4.73
2018-09-19T16:23:34.700Z,4.83
2018-09-19T16:26:02.894Z,4.80
2018-09-19T16:28:31.094Z,5.03
2018-09-19T16:30:59.265Z,4.63
2018-09-19T16:33:27.486Z,4.33
2018-09-19T16:35:55.424Z,4.17
2018-09-19T16:38:23.607Z,4.30
2018-09-19T16:40:51.806Z,4.40
2018-09-19T16:43:20.007Z,4.87
2018-09-19T16:45:48.285Z,4.57
2018-09-19T16:48:16.386Z,4.60
2018-09-19T16:50:44.321Z,4.53
2018-09-19T16:53:12.507Z,4.90
2018-09-19T16:55:40.435Z,4.53
2018-09-19T16:58:08.358Z,5.20
2018-09-19T17:00:36.285Z,5.20
2018-09-19T17:03:04.494Z,4.67
2018-09-19T17:05:32.775Z,5.10
2018-09-19T17:08:00.976Z,4.77
2018-09-19T17:10:29.177Z,4.60
2018-09-19T17:12:57.348Z,4.53
2018-09-19T17:15:25.312Z,4.83
2018-09-19T17:17:53.210Z,4.50
2018-09-19T17:20:21.129Z,5.25
2018-09-19T17:22:49.359Z,5.20
2018-09-19T17:25:17.281Z,4.80
2018-09-19T17:27:45.444Z,4.80
2018-09-19T17:30:13.601Z,5.10
2018-09-19T17:32:41.775Z,4.63
2018-09-19T17:35:09.995Z,6.97
2018-09-19T17:37:37.922Z,5.67
2018-09-19T17:40:05.928Z,5.10
2018-09-19T17:42:33.861Z,5.43
2018-09-19T17:45:01.855Z,5.13
2018-09-19T17:47:30.194Z,5.77
2018-09-19T17:49:58.528Z,5.53
2018-09-19T17:52:26.545Z,4.93
2018-09-19T17:54:54.710Z,5.80
2018-09-19T17:57:22.630Z,5.77
2018-09-19T17:59:50.654Z,5.60
2018-09-19T18:02:18.862Z,5.17
2018-09-19T18:04:47.026Z,5.50
2018-09-19T18:07:15.195Z,5.00
2018-09-19T18:09:43.360Z,5.30
2018-09-19T18:12:11.526Z,4.83
2018-09-19T18:14:39.680Z,5.43
2018-09-19T18:17:07.835Z,5.83
2018-09-19T18:19:36.021Z,5.53
2018-09-19T18:22:04.201Z,5.33
2018-09-19T18:24:32.380Z,5.47
2018-09-19T18:27:00.356Z,6.07
2018-09-19T18:29:28.341Z,5.83
2018-09-19T18:31:56.290Z,6.23
2018-09-19T18:34:24.451Z,5.60
2018-09-19T18:36:52.365Z,6.63
2018-09-19T18:39:20.310Z,5.93
2018-09-19T18:41:48.226Z,6.23
2018-09-19T18:44:16.142Z,5.93
2018-09-19T18:46:44.666Z,6.37
2018-09-19T18:49:13.044Z,6.37
2018-09-19T18:51:41.013Z,5.83
2018-09-19T18:54:08.929Z,6.70
2018-09-19T18:56:37.375Z,6.13
2018-09-19T18:59:05.342Z,6.40
2018-09-19T19:01:33.571Z,6.53
2018-09-19T19:04:01.707Z,6.57
2018-09-19T19:06:29.853Z,6.60
2018-09-19T19:08:58.007Z,6.90
2018-09-19T19:11:26.211Z,7.20
2018-09-19T19:13:54.414Z,7.57
2018-09-19T19:16:22.635Z,6.70
2018-09-19T19:18:50.903Z,7.33
2018-09-19T19:21:18.999Z,7.10
2018-09-19T19:23:46.964Z,7.33
2018-09-19T19:26:14.919Z,7.00
2018-09-19T19:28:42.894Z,7.50
2018-09-19T19:31:10.830Z,7.67
2018-09-19T19:33:38.920Z,7.97
2018-09-19T19:36:07.082Z,7.80
2018-09-19T19:38:35.256Z,7.60
2018-09-19T19:41:03.430Z,7.27
2018-09-19T19:43:31.601Z,7.40
2018-09-19T19:45:59.752Z,8.20
2018-09-19T19:48:27.669Z,7.07
2018-09-19T19:50:55.585Z,7.73
2018-09-19T19:53:23.566Z,7.70
2018-09-19T19:55:51.429Z,6.60
2018-09-19T19:58:19.354Z,7.90
2018-09-19T20:00:47.538Z,7.03
2018-09-19T20:03:15.502Z,7.83
2018-09-19T20:05:43.706Z,7.50
2018-09-19T20:08:11.858Z,7.70
2018-09-19T20:10:39.842Z,7.57
2018-09-19T20:13:08.410Z,7.73
2018-09-19T20:15:36.608Z,7.30
2018-09-19T20:18:04.861Z,7.63
2018-09-19T20:20:33.006Z,6.87
2018-09-19T20:23:01.165Z,8.33
2018-09-19T20:25:29.419Z,7.87
2018-09-19T20:27:57.603Z,7.87
2018-09-19T20:30:25.515Z,7.53
2018-09-19T20:32:53.721Z,8.50
2018-09-19T20:35:22.055Z,8.13
2018-09-19T20:37:50.225Z,8.47
2018-09-19T20:40:18.400Z,7.27
2018-09-19T20:42:46.568Z,7.73
2018-09-19T20:45:14.481Z,8.10
2018-09-19T20:47:42.668Z,8.50
2018-09-19T20:50:10.851Z,8.07
2018-09-19T20:52:38.774Z,7.93
2018-09-19T20:55:06.934Z,7.90
2018-09-19T20:57:35.090Z,8.20
2018-09-19T21:00:03.331Z,7.90
2018-09-19T21:02:32.078Z,8.30
2018-09-19T21:05:00.251Z,8.77
2018-09-19T21:07:28.414Z,8.73
2018-09-19T21:09:56.564Z,8.50
2018-09-19T21:12:24.717Z,7.57
2018-09-19T21:14:52.640Z,9.17
2018-09-19T21:17:20.786Z,8.43
2018-09-19T21:19:48.741Z,7.97
2018-09-19T21:22:17.012Z,8.27
2018-09-19T21:24:45.065Z,8.30
2018-09-19T21:27:13.218Z,7.93
2018-09-19T21:29:41.157Z,8.43
2018-09-19T21:32:09.336Z,8.40
2018-09-19T21:34:37.841Z,8.87
2018-09-19T21:37:05.974Z,7.83
2018-09-19T21:39:34.161Z,8.00
2018-09-19T21:42:02.342Z,8.77
2018-09-19T21:44:30.507Z,8.67
2018-09-19T21:46:58.444Z,7.53
2018-09-19T21:49:26.623Z,8.13
2018-09-19T21:51:54.879Z,8.97
2018-09-19T21:54:23.427Z,8.33
2018-09-19T21:56:51.489Z,8.80
2018-09-19T21:59:19.725Z,8.67
2018-09-19T22:01:52.131Z,8.73
2018-09-19T22:04:20.085Z,8.30
2018-09-19T22:06:48.252Z,9.07
2018-09-19T22:09:16.188Z,9.03
2018-09-19T22:11:44.351Z,8.50
2018-09-19T22:14:12.549Z,8.63
2018-09-19T22:16:40.698Z,9.03
2018-09-19T22:19:08.635Z,9.77
2018-09-19T22:21:36.823Z,8.47
2018-09-19T22:24:05.014Z,8.83
2018-09-19T22:26:33.034Z,8.53
2018-09-19T22:29:00.980Z,9.70
2018-09-19T22:31:29.164Z,9.80
2018-09-19T22:33:57.123Z,9.80
2018-09-19T22:36:25.290Z,9.90
2018-09-19T22:38:53.476Z,10.07
2018-09-19T22:41:21.740Z,9.80
2018-09-19T22:43:50.303Z,9.93
2018-09-19T22:46:18.344Z,9.97
2018-09-19T22:48:46.890Z,10.00
2018-09-19T22:51:14.871Z,10.13
2018-09-19T22:53:42.805Z,9.53
2018-09-19T22:56:11.010Z,9.23
2018-09-19T22:58:39.209Z,9.87
2018-09-19T23:01:07.154Z,9.80
2018-09-19T23:03:35.326Z,9.63
2018-09-19T23:06:03.522Z,9.77
2018-09-19T23:08:31.707Z,9.37
2018-09-19T23:10:59.890Z,10.43
2018-09-19T23:13:28.078Z,8.97
2018-09-19T23:15:56.310Z,9.80
2018-09-19T23:18:24.499Z,10.00
2018-09-19T23:20:52.450Z,10.07
2018-09-19T23:23:20.628Z,9.37
2018-09-19T23:25:48.936Z,9.93
2018-09-19T23:28:17.111Z,10.23
2018-09-19T23:30:45.048Z,9.80
2018-09-19T23:33:13.223Z,9.97
2018-09-19T23:35:41.175Z,10.40
2018-09-19T23:38:09.367Z,10.63
2018-09-19T23:40:37.543Z,10.53
2018-09-19T23:43:05.722Z,11.07
2018-09-19T23:45:33.906Z,10.57
2018-09-19T23:48:02.091Z,10.00
2018-09-19T23:50:30.300Z,11.63
2018-09-19T23:52:58.516Z,10.67
2018-09-19T23:55:26.746Z,10.87
2018-09-19T23:57:54.796Z,10.60
